Kezdőlap
METAR-TAF:

METAR-TAF

Repülőterek :

Esbjerg, Dánia

földrajzi szélesség: 55-32N, földrajzi hosszúság: 008-34E, magasság: 30 m

Jelenlegi meteorológiai megfigyelések

A jelentés 38 perccel ezelõtt készült, 20:20 UTC
Nyugat-délnyugati szél 1 kt
Hőmérséklet 17°C
Páratartalom 77%
Légköri nyomás 1018 hPa
Látótávolság 10 km, vagy több

METAR: EKEB 192020Z AUTO 25001KT 9999 NCD 17/13 Q1018

Idő: 22:58 (20:58 UTC)

Előrejelzés

A jelentés 6 órával és 58 perccel ezelõtt készült, 14:00 UTC
Az előrejelzés 19-én 15 óra UTC és 19-én 21 óra UTC között érvényes
Különbözõ irányokból fújó szél 2 kt
Látótávolság 10 km, vagy több
felhőtlen 1500 m magasságban, és nincs gomolyfelhõ

TAF: EKEB 191400Z 1915/1921 VRB02KT CAVOK

Meteorológiai megfigyelések és előrejelzések több, mint 4000 repülőtéren (METAR és TAF jelentéseket).

A térképen piros és sárga pontok jelzik az elérhető meteorológiai állomásokat.

Mozgassa az egeret a pont fölött, hogy megjelenjen az állomás neve.

Azután kattintson az időjárási megfigyelések és előrejelzések megtekintéséhez.

A térkép megváltoztatása: kattintson a fekete keresztel jelölt zöld gombra ráközelítéshez, a vonallal jelölt zöld gombra távolításhoz, vagy a zöld nyilakra a szomszédos térképek eléréséhez.


METAR-TAF: